createdAt,value
2022-08-22T00:00:33.942Z,90.97
2022-08-22T00:02:52.898Z,80.03
2022-08-22T00:02:56.068Z,89.74
2022-08-22T00:03:01.689Z,75.41
2022-08-22T00:03:09.413Z,91.30
2022-08-22T00:03:12.645Z,91.27
2022-08-22T00:05:54.917Z,91.21
2022-08-22T00:08:58.786Z,90.90
2022-08-22T00:11:49.719Z,90.38
2022-08-22T00:14:32.929Z,90.45
2022-08-22T00:17:03.008Z,90.61
2022-08-22T00:19:49.920Z,90.45
2022-08-22T00:22:25.963Z,90.31
2022-08-22T00:25:01.690Z,90.45
2022-08-22T00:27:36.698Z,90.44
2022-08-22T00:30:16.135Z,90.58
2022-08-22T00:32:49.153Z,90.77
2022-08-22T00:35:23.809Z,90.80
2022-08-22T00:38:10.686Z,91.16
2022-08-22T00:41:14.773Z,91.15
2022-08-22T00:44:08.019Z,91.04
2022-08-22T00:46:48.259Z,91.39
2022-08-22T00:49:23.508Z,91.01
2022-08-22T00:52:04.822Z,91.33
2022-08-22T00:54:34.192Z,91.52
2022-08-22T00:57:10.636Z,91.56
2022-08-22T00:59:55.175Z,91.50
2022-08-22T01:02:36.733Z,91.64
2022-08-22T01:05:17.138Z,91.78
2022-08-22T01:08:14.072Z,91.91
2022-08-22T01:11:26.818Z,91.88
2022-08-22T01:14:34.416Z,91.93
2022-08-22T01:17:22.743Z,92.06
2022-08-22T01:20:08.039Z,92.24
2022-08-22T01:22:47.072Z,92.15
2022-08-22T01:25:39.296Z,92.36
2022-08-22T01:28:09.770Z,92.35
2022-08-22T01:30:55.567Z,92.32
2022-08-22T01:33:59.404Z,92.43
2022-08-22T01:36:47.692Z,92.39
2022-08-22T01:39:19.890Z,92.70
2022-08-22T01:41:46.183Z,92.36
2022-08-22T01:44:28.724Z,92.80
2022-08-22T01:47:06.779Z,93.00
2022-08-22T01:49:44.107Z,93.32
2022-08-22T01:52:32.191Z,93.11
2022-08-22T01:55:22.723Z,92.67
2022-08-22T01:57:59.444Z,92.74
2022-08-22T02:00:34.721Z,92.58
2022-08-22T02:03:33.102Z,92.85
2022-08-22T02:06:17.050Z,92.82
2022-08-22T02:08:50.346Z,92.86
2022-08-22T02:11:33.514Z,92.47
2022-08-22T02:14:41.939Z,92.53
2022-08-22T02:17:17.513Z,91.64
2022-08-22T02:19:56.790Z,91.44
2022-08-22T02:23:20.362Z,91.48
2022-08-22T02:26:01.675Z,91.89
2022-08-22T02:28:57.409Z,92.24
2022-08-22T02:31:38.619Z,92.16
2022-08-22T02:34:37.417Z,91.97
2022-08-22T02:37:07.987Z,91.97
2022-08-22T02:40:02.356Z,91.72
2022-08-22T02:42:38.058Z,91.76
2022-08-22T02:45:15.297Z,91.42
2022-08-22T02:48:04.979Z,91.42
2022-08-22T02:50:47.371Z,91.51
2022-08-22T02:53:23.258Z,91.67
2022-08-22T02:56:08.675Z,91.67
2022-08-22T02:58:59.893Z,91.78
2022-08-22T03:01:29.767Z,91.57
2022-08-22T03:04:21.515Z,91.30
2022-08-22T03:07:03.425Z,91.14
2022-08-22T03:09:35.405Z,91.14
2022-08-22T03:12:21.740Z,91.43
2022-08-22T03:15:09.874Z,91.53
2022-08-22T03:17:49.596Z,91.52
2022-08-22T03:20:40.446Z,91.34
2022-08-22T03:23:20.206Z,91.62
2022-08-22T03:25:59.617Z,91.59
2022-08-22T03:28:38.119Z,91.73
2022-08-22T03:31:13.483Z,91.29
2022-08-22T03:33:40.111Z,91.00
2022-08-22T03:36:28.668Z,90.94
2022-08-22T03:39:17.309Z,91.01
2022-08-22T03:42:23.328Z,91.12
2022-08-22T03:45:00.177Z,91.13
2022-08-22T03:48:11.523Z,91.32
2022-08-22T03:50:38.309Z,91.53
2022-08-22T03:53:37.269Z,91.81
2022-08-22T03:56:09.666Z,91.76
2022-08-22T03:59:02.870Z,91.47
2022-08-22T04:01:51.613Z,91.27
2022-08-22T04:04:43.141Z,91.41
2022-08-22T04:07:28.005Z,91.04
2022-08-22T04:10:29.054Z,91.37
2022-08-22T04:13:24.802Z,91.48
2022-08-22T04:16:29.396Z,91.72
2022-08-22T04:19:30.418Z,91.42
2022-08-22T04:22:21.539Z,91.33
2022-08-22T04:24:57.821Z,91.59
2022-08-22T04:27:47.883Z,91.77
2022-08-22T04:30:23.312Z,91.68
2022-08-22T04:33:20.955Z,91.79
2022-08-22T04:35:59.207Z,92.04
2022-08-22T04:38:48.234Z,92.07
2022-08-22T04:41:50.300Z,91.67
2022-08-22T04:44:31.172Z,91.72
2022-08-22T04:46:59.995Z,91.76
2022-08-22T04:49:38.509Z,92.05
2022-08-22T04:52:13.981Z,92.04
2022-08-22T04:54:58.974Z,92.08
2022-08-22T04:57:32.320Z,91.72
2022-08-22T05:00:02.311Z,91.61
2022-08-22T05:02:28.876Z,91.63
2022-08-22T05:05:04.030Z,91.63
2022-08-22T05:07:37.331Z,91.39
2022-08-22T05:10:16.270Z,90.94
2022-08-22T05:12:49.455Z,91.25
2022-08-22T05:15:23.212Z,91.09
2022-08-22T05:17:53.256Z,91.22
2022-08-22T05:20:25.151Z,91.42
2022-08-22T05:23:02.625Z,91.33
2022-08-22T05:25:36.396Z,91.44
2022-08-22T05:28:28.674Z,91.43
2022-08-22T05:30:56.090Z,91.12
2022-08-22T05:33:31.762Z,91.08
2022-08-22T05:36:04.361Z,90.86
2022-08-22T05:38:36.356Z,90.91
2022-08-22T05:41:10.026Z,90.75
2022-08-22T05:43:40.652Z,91.14
2022-08-22T05:46:26.862Z,91.02
2022-08-22T05:49:00.230Z,90.91
2022-08-22T05:51:39.435Z,91.05
2022-08-22T05:54:22.318Z,90.96
2022-08-22T05:57:11.888Z,90.75
2022-08-22T05:59:41.827Z,90.94
2022-08-22T06:02:22.527Z,90.67
2022-08-22T06:04:54.668Z,90.21
2022-08-22T06:07:33.783Z,90.20
2022-08-22T06:10:13.547Z,89.91
2022-08-22T06:12:50.820Z,90.10
2022-08-22T06:15:52.704Z,89.69
2022-08-22T06:18:24.850Z,89.76
2022-08-22T06:20:57.686Z,89.37
2022-08-22T06:23:29.882Z,89.08
2022-08-22T06:26:00.274Z,88.68
2022-08-22T06:28:34.033Z,88.71
2022-08-22T06:31:03.398Z,88.80
2022-08-22T06:33:34.742Z,88.63
2022-08-22T06:36:24.987Z,88.29
2022-08-22T06:39:09.845Z,87.53
2022-08-22T06:41:42.774Z,87.00
2022-08-22T06:44:13.353Z,87.42
2022-08-22T06:46:41.278Z,87.32
2022-08-22T06:49:09.274Z,86.88
2022-08-22T06:51:38.775Z,86.25
2022-08-22T06:54:11.443Z,85.89
2022-08-22T06:56:44.110Z,85.15
2022-08-22T06:59:17.122Z,84.84
2022-08-22T07:02:13.379Z,84.46
2022-08-22T07:04:43.797Z,83.20
2022-08-22T07:07:10.163Z,83.02
2022-08-22T07:09:40.515Z,81.60
2022-08-22T07:12:19.926Z,82.39
2022-08-22T07:14:52.910Z,81.59
2022-08-22T07:17:23.418Z,81.18
2022-08-22T07:20:18.618Z,80.08
2022-08-22T07:22:57.579Z,79.49
2022-08-22T07:25:25.247Z,80.36
2022-08-22T07:28:36.733Z,79.05
2022-08-22T07:31:31.762Z,77.73
2022-08-22T07:34:18.218Z,75.97
2022-08-22T07:37:00.919Z,75.58
2022-08-22T07:39:37.459Z,73.13
2022-08-22T07:42:29.779Z,72.51
2022-08-22T07:45:14.025Z,71.30
2022-08-22T07:48:08.982Z,71.36
2022-08-22T07:50:42.720Z,69.24
2022-08-22T07:53:34.028Z,66.15
2022-08-22T07:56:03.208Z,64.01
2022-08-22T07:58:33.835Z,60.27
2022-08-22T08:01:00.698Z,57.86
2022-08-22T08:03:30.297Z,57.42
2022-08-22T08:05:57.294Z,58.77
2022-08-22T08:08:31.005Z,55.77
2022-08-22T08:11:00.453Z,54.53
2022-08-22T08:13:33.999Z,51.82
2022-08-22T08:16:02.341Z,52.65
2022-08-22T08:18:31.995Z,51.52
2022-08-22T08:21:02.393Z,49.50
2022-08-22T08:23:33.552Z,49.43
2022-08-22T08:26:13.218Z,50.27
2022-08-22T08:28:45.671Z,49.70
2022-08-22T08:31:20.432Z,49.33
2022-08-22T08:33:50.263Z,49.12
2022-08-22T08:36:31.089Z,51.42
2022-08-22T08:39:12.383Z,49.84
2022-08-22T08:42:09.144Z,48.30
2022-08-22T08:44:38.439Z,48.55
2022-08-22T08:47:32.880Z,49.77
2022-08-22T08:50:16.856Z,49.67
2022-08-22T08:52:59.166Z,50.07
2022-08-22T08:55:44.575Z,47.85
2022-08-22T08:58:19.903Z,48.28
2022-08-22T09:00:49.284Z,47.25
2022-08-22T09:03:45.823Z,48.44
2022-08-22T09:06:30.955Z,48.16
2022-08-22T09:09:03.929Z,51.08
2022-08-22T09:11:58.267Z,50.42
2022-08-22T09:14:48.457Z,48.58
2022-08-22T09:17:51.575Z,46.62
2022-08-22T09:20:49.098Z,44.37
2022-08-22T09:23:44.111Z,44.49
2022-08-22T09:26:18.986Z,43.76
2022-08-22T09:29:01.915Z,42.88
2022-08-22T09:31:48.175Z,40.69
2022-08-22T09:34:31.791Z,42.79
2022-08-22T09:37:13.979Z,42.56
2022-08-22T09:39:53.399Z,42.54
2022-08-22T09:42:31.296Z,41.45
2022-08-22T09:45:06.853Z,40.59
2022-08-22T09:47:43.571Z,39.98
2022-08-22T09:50:30.806Z,41.26
2022-08-22T09:53:10.287Z,38.83
2022-08-22T09:55:47.607Z,41.45
2022-08-22T09:58:28.346Z,38.00
2022-08-22T10:00:59.555Z,40.37
2022-08-22T10:03:45.327Z,40.39
2022-08-22T10:06:27.551Z,38.89
2022-08-22T10:09:09.092Z,35.95
2022-08-22T10:11:57.761Z,34.39
2022-08-22T10:14:58.008Z,37.59
2022-08-22T10:17:41.343Z,38.92
2022-08-22T10:20:24.779Z,38.46
2022-08-22T10:23:00.343Z,38.27
2022-08-22T10:25:46.939Z,36.36
2022-08-22T10:28:28.474Z,36.92
2022-08-22T10:31:17.963Z,40.25
2022-08-22T10:34:02.335Z,37.06
2022-08-22T10:36:55.072Z,37.91
2022-08-22T10:39:26.632Z,39.46
2022-08-22T10:42:19.348Z,42.70
2022-08-22T10:45:04.546Z,40.44
2022-08-22T10:47:40.802Z,41.25
2022-08-22T10:50:21.131Z,38.07
2022-08-22T10:53:28.980Z,38.35
2022-08-22T10:56:13.806Z,35.94
2022-08-22T10:59:03.949Z,37.21
2022-08-22T11:01:42.246Z,42.67
2022-08-22T11:04:40.687Z,40.82
2022-08-22T11:07:21.839Z,47.14
2022-08-22T11:09:58.683Z,47.01
2022-08-22T11:12:37.340Z,43.34
2022-08-22T11:15:40.547Z,44.51
2022-08-22T11:18:34.707Z,44.27
2022-08-22T11:21:07.395Z,41.97
2022-08-22T11:24:00.649Z,42.02
2022-08-22T11:26:47.431Z,38.23
2022-08-22T11:29:36.289Z,39.98
2022-08-22T11:32:31.846Z,42.83
2022-08-22T11:35:21.642Z,42.33
2022-08-22T11:38:04.948Z,41.13
2022-08-22T11:40:57.699Z,42.97
2022-08-22T11:43:49.614Z,39.34
2022-08-22T11:46:30.716Z,38.80
2022-08-22T11:49:19.017Z,36.46
2022-08-22T11:52:21.814Z,35.27
2022-08-22T11:55:16.611Z,37.81
2022-08-22T11:57:47.848Z,42.04
2022-08-22T12:00:29.707Z,38.63
2022-08-22T12:03:19.082Z,35.68
2022-08-22T12:06:32.242Z,35.12
2022-08-22T12:09:39.801Z,32.32
2022-08-22T12:12:42.393Z,38.47
2022-08-22T12:15:33.607Z,38.18
2022-08-22T12:18:29.415Z,40.81
2022-08-22T12:21:14.847Z,41.90
2022-08-22T12:23:59.306Z,35.30
2022-08-22T12:26:57.118Z,36.37
2022-08-22T12:29:45.536Z,43.27
2022-08-22T12:32:33.268Z,38.12
2022-08-22T12:35:29.813Z,36.42
2022-08-22T12:38:26.661Z,35.07
2022-08-22T12:41:08.629Z,30.41
2022-08-22T12:43:57.983Z,29.63
2022-08-22T12:46:47.179Z,30.83
2022-08-22T12:49:33.851Z,36.96
2022-08-22T12:52:24.989Z,39.20
2022-08-22T12:55:31.488Z,40.95
2022-08-22T12:58:07.541Z,40.79
2022-08-22T13:00:45.208Z,40.18
2022-08-22T13:03:35.243Z,43.20
2022-08-22T13:06:26.535Z,43.08
2022-08-22T13:08:54.251Z,42.53
2022-08-22T13:11:23.242Z,44.67
2022-08-22T13:14:00.310Z,44.34
2022-08-22T13:16:37.544Z,45.08
2022-08-22T13:19:13.446Z,40.58
2022-08-22T13:21:47.097Z,44.85
2022-08-22T13:24:38.805Z,42.07
2022-08-22T13:27:15.156Z,42.74
2022-08-22T13:29:52.486Z,46.35
2022-08-22T13:32:37.234Z,42.09
2022-08-22T13:35:07.912Z,40.66
2022-08-22T13:37:43.841Z,42.32
2022-08-22T13:40:15.273Z,41.32
2022-08-22T13:42:54.154Z,44.96
2022-08-22T13:45:28.539Z,41.59
2022-08-22T13:47:59.213Z,41.64
2022-08-22T13:50:53.594Z,37.90
2022-08-22T13:54:02.195Z,41.26
2022-08-22T13:56:39.686Z,39.87
2022-08-22T13:59:49.689Z,42.05
2022-08-22T14:02:43.789Z,41.18
2022-08-22T14:05:20.498Z,41.76
2022-08-22T14:08:12.864Z,41.41
2022-08-22T14:10:47.087Z,42.39
2022-08-22T14:13:30.462Z,42.72
2022-08-22T14:16:02.508Z,41.34
2022-08-22T14:18:45.528Z,44.17
2022-08-22T14:21:24.759Z,42.30
2022-08-22T14:23:53.389Z,41.21
2022-08-22T14:26:32.996Z,40.63
2022-08-22T14:29:08.325Z,41.80
2022-08-22T14:31:35.630Z,42.60
2022-08-22T14:34:10.476Z,43.05
2022-08-22T14:36:55.882Z,42.61
2022-08-22T14:39:36.596Z,42.47
2022-08-22T14:42:17.484Z,42.12
2022-08-22T14:44:57.778Z,44.19
2022-08-22T14:47:55.434Z,43.83
2022-08-22T14:50:53.259Z,42.39
2022-08-22T14:53:22.181Z,43.29
2022-08-22T14:56:00.565Z,41.82
2022-08-22T14:58:29.665Z,42.01
2022-08-22T15:00:57.943Z,42.05
2022-08-22T15:03:37.389Z,43.96
2022-08-22T15:06:10.148Z,41.50
2022-08-22T15:08:49.238Z,42.54
2022-08-22T15:11:25.639Z,42.46
2022-08-22T15:14:08.167Z,41.85
2022-08-22T15:16:55.288Z,42.94
2022-08-22T15:19:35.216Z,43.88
2022-08-22T15:22:25.624Z,43.95
2022-08-22T15:25:04.534Z,42.68
2022-08-22T15:28:05.298Z,43.27
2022-08-22T15:30:57.701Z,42.12
2022-08-22T15:33:27.846Z,41.50
2022-08-22T15:36:15.735Z,44.53
2022-08-22T15:38:48.117Z,41.93
2022-08-22T15:41:36.472Z,41.56
2022-08-22T15:44:14.898Z,41.47
2022-08-22T15:47:11.619Z,43.72
2022-08-22T15:49:52.804Z,43.82
2022-08-22T15:52:29.310Z,44.72
2022-08-22T15:54:57.066Z,45.28
2022-08-22T15:58:04.940Z,43.37
2022-08-22T16:01:02.466Z,42.71
2022-08-22T16:03:33.022Z,41.60
2022-08-22T16:06:07.428Z,43.55
2022-08-22T16:08:36.959Z,43.72
2022-08-22T16:11:03.257Z,43.02
2022-08-22T16:13:29.755Z,44.24
2022-08-22T16:16:02.241Z,45.60
2022-08-22T16:18:35.196Z,43.62
2022-08-22T16:21:08.514Z,44.98
2022-08-22T16:23:50.074Z,44.54
2022-08-22T16:26:31.797Z,45.46
2022-08-22T16:29:13.476Z,44.82
2022-08-22T16:31:43.737Z,49.59
2022-08-22T16:34:16.276Z,45.53
2022-08-22T16:36:54.764Z,45.96
2022-08-22T16:39:21.202Z,45.32
2022-08-22T16:41:54.112Z,46.82
2022-08-22T16:44:20.475Z,47.99
2022-08-22T16:46:48.662Z,49.00
2022-08-22T16:49:50.235Z,44.87
2022-08-22T16:52:25.904Z,44.47
2022-08-22T16:55:01.216Z,46.00
2022-08-22T16:58:06.013Z,47.02
2022-08-22T17:00:57.884Z,47.35
2022-08-22T17:03:55.390Z,48.06
2022-08-22T17:06:32.065Z,47.77
2022-08-22T17:09:14.482Z,50.44
2022-08-22T17:11:49.106Z,50.51
2022-08-22T17:14:41.766Z,49.54
2022-08-22T17:17:29.001Z,50.64
2022-08-22T17:20:08.132Z,51.36
2022-08-22T17:22:54.149Z,54.21
2022-08-22T17:25:29.071Z,55.11
2022-08-22T17:28:39.266Z,55.76
2022-08-22T17:31:17.323Z,56.67
2022-08-22T17:33:52.391Z,58.35
2022-08-22T17:36:27.907Z,59.18
2022-08-22T17:39:17.242Z,59.51
2022-08-22T17:42:06.867Z,59.68
2022-08-22T17:44:46.943Z,59.91
2022-08-22T17:47:32.639Z,59.56
2022-08-22T17:50:10.618Z,61.00
2022-08-22T17:52:49.099Z,60.65
2022-08-22T17:55:26.573Z,61.93
2022-08-22T17:58:04.981Z,60.42
2022-08-22T18:00:35.519Z,61.13
2022-08-22T18:03:07.655Z,61.45
2022-08-22T18:06:01.434Z,62.75
2022-08-22T18:09:13.311Z,62.80
2022-08-22T18:11:40.062Z,62.38
2022-08-22T18:14:21.124Z,63.27
2022-08-22T18:16:53.817Z,62.92
2022-08-22T18:19:45.171Z,62.06
2022-08-22T18:22:11.571Z,62.77
2022-08-22T18:25:08.563Z,63.47
2022-08-22T18:27:51.619Z,63.27
2022-08-22T18:30:26.621Z,64.61
2022-08-22T18:33:05.897Z,64.37
2022-08-22T18:35:42.755Z,64.58
2022-08-22T18:38:35.852Z,64.84
2022-08-22T18:41:28.628Z,65.05
2022-08-22T18:43:58.339Z,65.84
2022-08-22T18:46:47.878Z,66.50
2022-08-22T18:49:24.037Z,67.70
2022-08-22T18:52:05.739Z,68.29
2022-08-22T18:54:52.138Z,69.04
2022-08-22T18:57:55.662Z,67.97
2022-08-22T19:00:38.818Z,69.01
2022-08-22T19:03:28.507Z,68.97
2022-08-22T19:06:00.963Z,70.19
2022-08-22T19:08:36.393Z,70.83
2022-08-22T19:11:35.091Z,70.71
2022-08-22T19:14:24.051Z,71.50
2022-08-22T19:17:15.631Z,72.29
2022-08-22T19:20:22.862Z,72.39
2022-08-22T19:23:00.483Z,73.59
2022-08-22T19:25:27.932Z,73.82
2022-08-22T19:28:06.567Z,74.12
2022-08-22T19:30:44.998Z,74.83
2022-08-22T19:33:34.150Z,75.47
2022-08-22T19:36:09.400Z,76.05
2022-08-22T19:39:09.229Z,76.11
2022-08-22T19:41:54.039Z,76.66
2022-08-22T19:44:20.313Z,77.24
2022-08-22T19:47:04.784Z,77.89
2022-08-22T19:49:42.820Z,78.17
2022-08-22T19:52:46.541Z,78.36
2022-08-22T19:55:18.647Z,79.19
2022-08-22T19:58:00.199Z,79.33
2022-08-22T20:01:05.095Z,79.49
2022-08-22T20:03:41.803Z,79.59
2022-08-22T20:06:44.139Z,79.89
2022-08-22T20:09:52.947Z,79.88
2022-08-22T20:12:42.089Z,79.93
2022-08-22T20:15:20.196Z,80.39
2022-08-22T20:18:46.536Z,81.27
2022-08-22T20:20:54.448Z,81.11
2022-08-22T20:23:29.555Z,81.20
2022-08-22T20:25:57.276Z,81.85
2022-08-22T20:28:53.155Z,82.15
2022-08-22T20:31:23.616Z,82.41
2022-08-22T20:34:00.636Z,81.61
2022-08-22T20:36:29.286Z,81.43
2022-08-22T20:39:01.717Z,81.68
2022-08-22T20:41:31.728Z,82.18
2022-08-22T20:44:19.290Z,81.82
2022-08-22T20:46:55.213Z,82.31
2022-08-22T20:49:28.160Z,82.73
2022-08-22T20:52:34.770Z,82.54
2022-08-22T20:55:01.059Z,82.44
2022-08-22T20:57:28.426Z,82.25
2022-08-22T20:59:56.546Z,82.22
2022-08-22T21:02:34.627Z,81.74
2022-08-22T21:05:40.900Z,81.82
2022-08-22T21:08:18.077Z,81.70
2022-08-22T21:11:03.727Z,82.04
2022-08-22T21:13:37.694Z,81.99
2022-08-22T21:16:30.694Z,82.20
2022-08-22T21:18:57.871Z,81.50
2022-08-22T21:21:30.583Z,81.31
2022-08-22T21:24:01.381Z,81.55
2022-08-22T21:26:38.528Z,81.79
2022-08-22T21:29:14.042Z,82.97
2022-08-22T21:31:49.879Z,83.59
2022-08-22T21:34:22.658Z,83.03
2022-08-22T21:36:52.307Z,83.27
2022-08-22T21:39:22.436Z,83.60
2022-08-22T21:41:52.960Z,83.76
2022-08-22T21:44:27.676Z,83.60
2022-08-22T21:46:54.756Z,83.48
2022-08-22T21:49:21.386Z,83.09
2022-08-22T21:51:48.542Z,83.63
2022-08-22T21:54:29.861Z,83.35
2022-08-22T21:57:09.983Z,83.18
2022-08-22T21:59:51.955Z,83.24
2022-08-22T22:02:37.354Z,83.60
2022-08-22T22:05:18.075Z,83.44
2022-08-22T22:07:46.631Z,83.78
2022-08-22T22:10:16.796Z,84.39
2022-08-22T22:12:45.628Z,84.73
2022-08-22T22:15:16.401Z,84.94
2022-08-22T22:17:43.402Z,84.71
2022-08-22T22:20:11.604Z,84.90
2022-08-22T22:22:46.042Z,85.19
2022-08-22T22:25:41.324Z,85.38
2022-08-22T22:28:06.575Z,85.54
2022-08-22T22:30:33.143Z,86.11
2022-08-22T22:32:59.798Z,86.24
2022-08-22T22:35:26.878Z,86.78
2022-08-22T22:37:54.168Z,86.75
2022-08-22T22:40:20.676Z,87.07
2022-08-22T22:42:47.179Z,87.50
2022-08-22T22:45:13.580Z,87.28
2022-08-22T22:47:40.006Z,87.37
2022-08-22T22:50:07.058Z,87.68
2022-08-22T22:52:33.588Z,87.84
2022-08-22T22:55:08.365Z,87.79
2022-08-22T22:57:41.398Z,87.74
2022-08-22T23:00:12.648Z,87.60
2022-08-22T23:02:40.144Z,87.25
2022-08-22T23:05:08.662Z,87.47
2022-08-22T23:07:37.570Z,87.19
2022-08-22T23:10:06.754Z,87.26
2022-08-22T23:12:35.567Z,86.96
2022-08-22T23:15:02.162Z,87.04
2022-08-22T23:17:28.735Z,87.15
2022-08-22T23:19:55.179Z,87.09
2022-08-22T23:22:21.532Z,87.08
2022-08-22T23:24:49.566Z,87.30
2022-08-22T23:27:16.024Z,87.24
2022-08-22T23:29:43.029Z,87.32
2022-08-22T23:32:11.153Z,87.97
2022-08-22T23:34:43.859Z,87.65
2022-08-22T23:37:10.543Z,88.09
2022-08-22T23:39:38.363Z,87.98
2022-08-22T23:42:10.334Z,87.85
2022-08-22T23:44:39.320Z,88.22
2022-08-22T23:47:07.454Z,88.54
2022-08-22T23:49:34.740Z,88.76
2022-08-22T23:52:01.853Z,88.87
2022-08-22T23:54:28.548Z,88.70
2022-08-22T23:56:57.430Z,88.73
2022-08-22T23:59:30.625Z,88.56
